sensor_id;sensor_type;location;lat;lon;timestamp;P1;durP1;ratioP1;P2;durP2;ratioP2
11957;SDS011;6039;52.576;13.348;2023-09-18T00:01:34;8.03;;;6.80;;
11957;SDS011;6039;52.576;13.348;2023-09-18T00:06:42;8.07;;;6.90;;
11957;SDS011;6039;52.576;13.348;2023-09-18T00:11:46;8.60;;;7.03;;
11957;SDS011;6039;52.576;13.348;2023-09-18T00:16:50;9.80;;;6.77;;
11957;SDS011;6039;52.576;13.348;2023-09-18T00:21:56;9.13;;;7.30;;
11957;SDS011;6039;52.576;13.348;2023-09-18T00:27:00;7.33;;;6.40;;
11957;SDS011;6039;52.576;13.348;2023-09-18T00:32:05;7.33;;;6.53;;
11957;SDS011;6039;52.576;13.348;2023-09-18T00:37:12;8.90;;;6.63;;
11957;SDS011;6039;52.576;13.348;2023-09-18T00:42:16;8.17;;;6.63;;
11957;SDS011;6039;52.576;13.348;2023-09-18T00:47:22;8.03;;;6.50;;
11957;SDS011;6039;52.576;13.348;2023-09-18T00:52:29;6.40;;;5.80;;
11957;SDS011;6039;52.576;13.348;2023-09-18T00:57:33;7.07;;;6.27;;
11957;SDS011;6039;52.576;13.348;2023-09-18T01:02:37;9.20;;;7.20;;
11957;SDS011;6039;52.576;13.348;2023-09-18T01:07:44;6.97;;;6.23;;
11957;SDS011;6039;52.576;13.348;2023-09-18T01:12:50;7.77;;;6.53;;
11957;SDS011;6039;52.576;13.348;2023-09-18T01:17:58;7.00;;;6.13;;
11957;SDS011;6039;52.576;13.348;2023-09-18T01:23:05;8.27;;;6.57;;
11957;SDS011;6039;52.576;13.348;2023-09-18T01:28:11;7.20;;;5.80;;
11957;SDS011;6039;52.576;13.348;2023-09-18T01:33:16;7.83;;;6.10;;
11957;SDS011;6039;52.576;13.348;2023-09-18T01:38:23;7.07;;;6.13;;
11957;SDS011;6039;52.576;13.348;2023-09-18T01:43:27;7.50;;;6.20;;
11957;SDS011;6039;52.576;13.348;2023-09-18T01:48:32;6.53;;;5.63;;
11957;SDS011;6039;52.576;13.348;2023-09-18T01:53:39;8.40;;;6.33;;
11957;SDS011;6039;52.576;13.348;2023-09-18T01:58:43;8.70;;;6.50;;
11957;SDS011;6039;52.576;13.348;2023-09-18T02:03:47;7.83;;;6.23;;
11957;SDS011;6039;52.576;13.348;2023-09-18T02:08:53;7.07;;;5.97;;
11957;SDS011;6039;52.576;13.348;2023-09-18T02:13:57;7.93;;;6.20;;
11957;SDS011;6039;52.576;13.348;2023-09-18T02:19:05;8.37;;;6.00;;
11957;SDS011;6039;52.576;13.348;2023-09-18T02:24:11;7.90;;;6.63;;
11957;SDS011;6039;52.576;13.348;2023-09-18T02:29:15;8.47;;;6.33;;
11957;SDS011;6039;52.576;13.348;2023-09-18T02:34:19;8.40;;;6.00;;
11957;SDS011;6039;52.576;13.348;2023-09-18T02:39:26;7.23;;;6.00;;
11957;SDS011;6039;52.576;13.348;2023-09-18T02:44:30;9.33;;;6.27;;
11957;SDS011;6039;52.576;13.348;2023-09-18T02:49:34;7.13;;;6.00;;
11957;SDS011;6039;52.576;13.348;2023-09-18T02:54:40;7.10;;;6.17;;
11957;SDS011;6039;52.576;13.348;2023-09-18T02:59:44;16.17;;;6.60;;
11957;SDS011;6039;52.576;13.348;2023-09-18T03:04:48;8.83;;;6.03;;
11957;SDS011;6039;52.576;13.348;2023-09-18T03:09:55;7.37;;;6.10;;
11957;SDS011;6039;52.576;13.348;2023-09-18T03:14:59;9.07;;;6.27;;
11957;SDS011;6039;52.576;13.348;2023-09-18T03:20:04;7.03;;;5.97;;
11957;SDS011;6039;52.576;13.348;2023-09-18T03:25:11;7.70;;;6.33;;
11957;SDS011;6039;52.576;13.348;2023-09-18T03:30:15;6.83;;;5.80;;
11957;SDS011;6039;52.576;13.348;2023-09-18T03:35:20;7.07;;;5.50;;
11957;SDS011;6039;52.576;13.348;2023-09-18T03:40:27;8.60;;;6.23;;
11957;SDS011;6039;52.576;13.348;2023-09-18T03:45:31;7.10;;;5.83;;
11957;SDS011;6039;52.576;13.348;2023-09-18T03:50:35;7.40;;;6.17;;
11957;SDS011;6039;52.576;13.348;2023-09-18T03:55:41;6.77;;;6.07;;
11957;SDS011;6039;52.576;13.348;2023-09-18T04:00:45;7.30;;;6.17;;
11957;SDS011;6039;52.576;13.348;2023-09-18T04:05:49;7.23;;;6.10;;
11957;SDS011;6039;52.576;13.348;2023-09-18T04:10:56;7.23;;;6.13;;
11957;SDS011;6039;52.576;13.348;2023-09-18T04:16:00;8.80;;;6.50;;
11957;SDS011;6039;52.576;13.348;2023-09-18T04:21:04;7.53;;;6.43;;
11957;SDS011;6039;52.576;13.348;2023-09-18T04:26:13;7.57;;;6.67;;
11957;SDS011;6039;52.576;13.348;2023-09-18T04:31:18;7.50;;;5.93;;
11957;SDS011;6039;52.576;13.348;2023-09-18T04:36:22;7.83;;;6.60;;
11957;SDS011;6039;52.576;13.348;2023-09-18T04:41:29;7.90;;;6.47;;
11957;SDS011;6039;52.576;13.348;2023-09-18T04:46:33;7.70;;;6.53;;
11957;SDS011;6039;52.576;13.348;2023-09-18T04:51:37;8.03;;;6.60;;
11957;SDS011;6039;52.576;13.348;2023-09-18T04:56:44;8.17;;;6.60;;
11957;SDS011;6039;52.576;13.348;2023-09-18T05:01:48;7.87;;;6.30;;
11957;SDS011;6039;52.576;13.348;2023-09-18T05:06:52;10.93;;;6.43;;
11957;SDS011;6039;52.576;13.348;2023-09-18T05:11:59;8.23;;;6.53;;
11957;SDS011;6039;52.576;13.348;2023-09-18T05:17:03;7.00;;;6.30;;
11957;SDS011;6039;52.576;13.348;2023-09-18T05:22:07;8.30;;;6.67;;
11957;SDS011;6039;52.576;13.348;2023-09-18T05:27:14;8.13;;;6.97;;
11957;SDS011;6039;52.576;13.348;2023-09-18T05:32:18;7.77;;;6.33;;
11957;SDS011;6039;52.576;13.348;2023-09-18T05:37:23;7.47;;;6.17;;
11957;SDS011;6039;52.576;13.348;2023-09-18T05:42:30;10.77;;;7.03;;
11957;SDS011;6039;52.576;13.348;2023-09-18T05:47:34;7.73;;;6.27;;
11957;SDS011;6039;52.576;13.348;2023-09-18T05:52:38;10.13;;;6.33;;
11957;SDS011;6039;52.576;13.348;2023-09-18T05:57:45;8.37;;;6.60;;
11957;SDS011;6039;52.576;13.348;2023-09-18T06:02:49;9.97;;;6.63;;
11957;SDS011;6039;52.576;13.348;2023-09-18T06:07:53;7.70;;;5.70;;
11957;SDS011;6039;52.576;13.348;2023-09-18T06:13:00;7.00;;;5.70;;
11957;SDS011;6039;52.576;13.348;2023-09-18T06:18:06;7.60;;;5.87;;
11957;SDS011;6039;52.576;13.348;2023-09-18T06:23:10;7.90;;;5.87;;
11957;SDS011;6039;52.576;13.348;2023-09-18T06:28:16;8.13;;;5.77;;
11957;SDS011;6039;52.576;13.348;2023-09-18T06:33:20;8.07;;;6.30;;
11957;SDS011;6039;52.576;13.348;2023-09-18T06:38:24;7.43;;;5.97;;
11957;SDS011;6039;52.576;13.348;2023-09-18T06:43:31;7.77;;;6.37;;
11957;SDS011;6039;52.576;13.348;2023-09-18T06:48:35;6.77;;;5.77;;
11957;SDS011;6039;52.576;13.348;2023-09-18T06:53:39;6.10;;;5.47;;
11957;SDS011;6039;52.576;13.348;2023-09-18T06:58:45;6.47;;;5.73;;
11957;SDS011;6039;52.576;13.348;2023-09-18T07:03:51;9.03;;;6.23;;
11957;SDS011;6039;52.576;13.348;2023-09-18T07:08:56;7.83;;;5.87;;
11957;SDS011;6039;52.576;13.348;2023-09-18T07:14:03;7.23;;;5.97;;
11957;SDS011;6039;52.576;13.348;2023-09-18T07:19:08;6.13;;;5.03;;
11957;SDS011;6039;52.576;13.348;2023-09-18T07:24:16;5.77;;;5.17;;
11957;SDS011;6039;52.576;13.348;2023-09-18T07:29:23;6.55;;;5.05;;
11957;SDS011;6039;52.576;13.348;2023-09-18T07:34:27;6.78;;;5.25;;
11957;SDS011;6039;52.576;13.348;2023-09-18T07:39:32;6.27;;;4.97;;
11957;SDS011;6039;52.576;13.348;2023-09-18T07:44:38;7.95;;;5.53;;
11957;SDS011;6039;52.576;13.348;2023-09-18T07:49:42;6.60;;;5.90;;
11957;SDS011;6039;52.576;13.348;2023-09-18T07:54:46;5.80;;;5.20;;
11957;SDS011;6039;52.576;13.348;2023-09-18T07:59:53;5.72;;;4.47;;
11957;SDS011;6039;52.576;13.348;2023-09-18T08:04:57;5.00;;;4.50;;
11957;SDS011;6039;52.576;13.348;2023-09-18T08:10:02;5.63;;;4.78;;
11957;SDS011;6039;52.576;13.348;2023-09-18T08:15:11;5.63;;;4.22;;
11957;SDS011;6039;52.576;13.348;2023-09-18T08:20:15;5.32;;;4.82;;
11957;SDS011;6039;52.576;13.348;2023-09-18T08:25:19;5.18;;;4.50;;
11957;SDS011;6039;52.576;13.348;2023-09-18T08:30:26;4.70;;;4.30;;
11957;SDS011;6039;52.576;13.348;2023-09-18T08:35:30;5.50;;;4.50;;
11957;SDS011;6039;52.576;13.348;2023-09-18T08:40:34;7.25;;;4.40;;
11957;SDS011;6039;52.576;13.348;2023-09-18T08:45:42;5.10;;;4.60;;
11957;SDS011;6039;52.576;13.348;2023-09-18T08:50:49;5.72;;;4.40;;
11957;SDS011;6039;52.576;13.348;2023-09-18T08:55:53;5.78;;;4.93;;
11957;SDS011;6039;52.576;13.348;2023-09-18T09:01:01;4.90;;;4.28;;
11957;SDS011;6039;52.576;13.348;2023-09-18T09:06:06;5.07;;;4.53;;
11957;SDS011;6039;52.576;13.348;2023-09-18T09:11:10;5.28;;;4.78;;
11957;SDS011;6039;52.576;13.348;2023-09-18T09:16:17;4.70;;;4.20;;
11957;SDS011;6039;52.576;13.348;2023-09-18T09:21:21;5.22;;;4.72;;
11957;SDS011;6039;52.576;13.348;2023-09-18T09:26:25;7.25;;;4.57;;
11957;SDS011;6039;52.576;13.348;2023-09-18T09:31:32;4.90;;;4.40;;
11957;SDS011;6039;52.576;13.348;2023-09-18T09:41:55;4.68;;;4.13;;
11957;SDS011;6039;52.576;13.348;2023-09-18T09:47:06;4.82;;;4.35;;
11957;SDS011;6039;52.576;13.348;2023-09-18T09:52:13;4.70;;;4.20;;
11957;SDS011;6039;52.576;13.348;2023-09-18T09:57:23;4.22;;;3.83;;
11957;SDS011;6039;52.576;13.348;2023-09-18T10:02:29;6.13;;;4.60;;
11957;SDS011;6039;52.576;13.348;2023-09-18T10:07:34;4.47;;;4.05;;
11957;SDS011;6039;52.576;13.348;2023-09-18T10:12:39;4.40;;;4.00;;
11957;SDS011;6039;52.576;13.348;2023-09-18T10:17:46;5.32;;;4.82;;
11957;SDS011;6039;52.576;13.348;2023-09-18T10:22:52;6.38;;;4.10;;
11957;SDS011;6039;52.576;13.348;2023-09-18T10:27:59;4.10;;;3.70;;
11957;SDS011;6039;52.576;13.348;2023-09-18T10:33:10;5.72;;;4.05;;
11957;SDS011;6039;52.576;13.348;2023-09-18T10:38:14;5.43;;;4.40;;
11957;SDS011;6039;52.576;13.348;2023-09-18T10:43:19;4.77;;;4.10;;
11957;SDS011;6039;52.576;13.348;2023-09-18T10:48:25;4.70;;;4.20;;
11957;SDS011;6039;52.576;13.348;2023-09-18T10:53:29;4.22;;;3.83;;
11957;SDS011;6039;52.576;13.348;2023-09-18T10:58:34;4.43;;;4.03;;
11957;SDS011;6039;52.576;13.348;2023-09-18T11:03:41;4.57;;;3.63;;
11957;SDS011;6039;52.576;13.348;2023-09-18T11:08:46;6.07;;;3.80;;
11957;SDS011;6039;52.576;13.348;2023-09-18T11:13:53;5.28;;;4.38;;
11957;SDS011;6039;52.576;13.348;2023-09-18T11:19:07;6.45;;;4.47;;
11957;SDS011;6039;52.576;13.348;2023-09-18T11:24:17;6.03;;;4.20;;
11957;SDS011;6039;52.576;13.348;2023-09-18T11:29:23;4.87;;;4.30;;
11957;SDS011;6039;52.576;13.348;2023-09-18T11:34:32;8.23;;;4.10;;
11957;SDS011;6039;52.576;13.348;2023-09-18T11:39:37;5.07;;;4.57;;
11957;SDS011;6039;52.576;13.348;2023-09-18T11:44:42;4.70;;;4.20;;
11957;SDS011;6039;52.576;13.348;2023-09-18T11:49:52;4.43;;;3.97;;
11957;SDS011;6039;52.576;13.348;2023-09-18T11:54:58;4.47;;;4.07;;
11957;SDS011;6039;52.576;13.348;2023-09-18T12:00:04;6.03;;;4.17;;
11957;SDS011;6039;52.576;13.348;2023-09-18T12:05:17;5.22;;;4.32;;
11957;SDS011;6039;52.576;13.348;2023-09-18T12:10:24;4.93;;;4.25;;
11957;SDS011;6039;52.576;13.348;2023-09-18T12:15:29;4.95;;;4.40;;
11957;SDS011;6039;52.576;13.348;2023-09-18T12:20:36;4.43;;;4.00;;
11957;SDS011;6039;52.576;13.348;2023-09-18T12:25:41;5.17;;;4.27;;
11957;SDS011;6039;52.576;13.348;2023-09-18T12:30:48;6.03;;;4.30;;
11957;SDS011;6039;52.576;13.348;2023-09-18T12:35:58;5.72;;;4.45;;
11957;SDS011;6039;52.576;13.348;2023-09-18T12:41:03;6.57;;;4.30;;
11957;SDS011;6039;52.576;13.348;2023-09-18T12:46:11;4.73;;;4.20;;
11957;SDS011;6039;52.576;13.348;2023-09-18T12:51:17;5.20;;;4.00;;
11957;SDS011;6039;52.576;13.348;2023-09-18T12:56:22;5.75;;;4.18;;
11957;SDS011;6039;52.576;13.348;2023-09-18T13:01:26;6.07;;;3.90;;
11957;SDS011;6039;52.576;13.348;2023-09-18T13:06:33;4.70;;;3.73;;
11957;SDS011;6039;52.576;13.348;2023-09-18T13:11:51;4.87;;;3.90;;
11957;SDS011;6039;52.576;13.348;2023-09-18T13:17:00;4.13;;;3.40;;
11957;SDS011;6039;52.576;13.348;2023-09-18T13:22:08;4.37;;;3.87;;
11957;SDS011;6039;52.576;13.348;2023-09-18T13:27:12;4.80;;;4.10;;
11957;SDS011;6039;52.576;13.348;2023-09-18T13:32:16;5.13;;;3.93;;
11957;SDS011;6039;52.576;13.348;2023-09-18T13:37:22;4.30;;;3.80;;
11957;SDS011;6039;52.576;13.348;2023-09-18T13:42:27;6.23;;;4.10;;
11957;SDS011;6039;52.576;13.348;2023-09-18T13:47:32;4.05;;;3.65;;
11957;SDS011;6039;52.576;13.348;2023-09-18T13:52:40;7.27;;;4.50;;
11957;SDS011;6039;52.576;13.348;2023-09-18T13:57:44;3.97;;;3.43;;
11957;SDS011;6039;52.576;13.348;2023-09-18T14:02:48;4.40;;;3.93;;
11957;SDS011;6039;52.576;13.348;2023-09-18T14:07:55;4.70;;;3.83;;
11957;SDS011;6039;52.576;13.348;2023-09-18T14:13:00;6.43;;;3.75;;
11957;SDS011;6039;52.576;13.348;2023-09-18T14:18:04;5.63;;;3.70;;
11957;SDS011;6039;52.576;13.348;2023-09-18T14:23:11;6.03;;;3.87;;
11957;SDS011;6039;52.576;13.348;2023-09-18T14:28:15;6.33;;;3.80;;
11957;SDS011;6039;52.576;13.348;2023-09-18T14:33:19;5.70;;;3.30;;
11957;SDS011;6039;52.576;13.348;2023-09-18T14:38:26;5.83;;;3.17;;
11957;SDS011;6039;52.576;13.348;2023-09-18T14:43:30;4.10;;;3.00;;
11957;SDS011;6039;52.576;13.348;2023-09-18T14:48:33;4.03;;;3.07;;
11957;SDS011;6039;52.576;13.348;2023-09-18T14:53:40;4.83;;;2.27;;
11957;SDS011;6039;52.576;13.348;2023-09-18T14:58:44;4.40;;;2.30;;
11957;SDS011;6039;52.576;13.348;2023-09-18T15:03:50;5.07;;;2.40;;
11957;SDS011;6039;52.576;13.348;2023-09-18T15:08:57;5.07;;;2.70;;
11957;SDS011;6039;52.576;13.348;2023-09-18T15:14:03;6.80;;;2.60;;
11957;SDS011;6039;52.576;13.348;2023-09-18T15:19:09;3.00;;;2.37;;
11957;SDS011;6039;52.576;13.348;2023-09-18T15:24:16;5.63;;;2.13;;
11957;SDS011;6039;52.576;13.348;2023-09-18T15:29:20;3.37;;;2.40;;
11957;SDS011;6039;52.576;13.348;2023-09-18T15:34:26;9.63;;;2.57;;
11957;SDS011;6039;52.576;13.348;2023-09-18T15:39:33;7.77;;;2.70;;
11957;SDS011;6039;52.576;13.348;2023-09-18T15:44:37;5.23;;;2.50;;
11957;SDS011;6039;52.576;13.348;2023-09-18T15:49:41;4.43;;;2.70;;
11957;SDS011;6039;52.576;13.348;2023-09-18T15:54:50;4.07;;;2.70;;
11957;SDS011;6039;52.576;13.348;2023-09-18T15:59:54;8.63;;;2.67;;
11957;SDS011;6039;52.576;13.348;2023-09-18T16:04:58;4.77;;;2.63;;
11957;SDS011;6039;52.576;13.348;2023-09-18T16:10:07;5.03;;;2.73;;
11957;SDS011;6039;52.576;13.348;2023-09-18T16:15:12;5.20;;;2.60;;
11957;SDS011;6039;52.576;13.348;2023-09-18T16:20:16;6.53;;;3.27;;
11957;SDS011;6039;52.576;13.348;2023-09-18T16:25:23;4.60;;;2.50;;
11957;SDS011;6039;52.576;13.348;2023-09-18T16:30:27;5.97;;;3.17;;
11957;SDS011;6039;52.576;13.348;2023-09-18T16:35:31;6.20;;;3.10;;
11957;SDS011;6039;52.576;13.348;2023-09-18T16:40:39;5.47;;;3.50;;
11957;SDS011;6039;52.576;13.348;2023-09-18T16:45:43;7.17;;;3.13;;
11957;SDS011;6039;52.576;13.348;2023-09-18T16:50:48;5.33;;;3.53;;
11957;SDS011;6039;52.576;13.348;2023-09-18T16:55:54;7.67;;;3.43;;
11957;SDS011;6039;52.576;13.348;2023-09-18T17:00:58;5.77;;;3.23;;
11957;SDS011;6039;52.576;13.348;2023-09-18T17:06:03;4.30;;;3.37;;
11957;SDS011;6039;52.576;13.348;2023-09-18T17:11:10;4.90;;;3.20;;
11957;SDS011;6039;52.576;13.348;2023-09-18T17:16:14;8.07;;;3.60;;
11957;SDS011;6039;52.576;13.348;2023-09-18T17:21:19;6.13;;;3.73;;
11957;SDS011;6039;52.576;13.348;2023-09-18T17:26:26;5.40;;;3.73;;
11957;SDS011;6039;52.576;13.348;2023-09-18T17:31:30;6.60;;;3.70;;
11957;SDS011;6039;52.576;13.348;2023-09-18T17:36:34;5.57;;;3.47;;
11957;SDS011;6039;52.576;13.348;2023-09-18T17:41:41;4.73;;;3.10;;
11957;SDS011;6039;52.576;13.348;2023-09-18T17:46:45;4.97;;;3.50;;
11957;SDS011;6039;52.576;13.348;2023-09-18T17:51:49;8.33;;;3.30;;
11957;SDS011;6039;52.576;13.348;2023-09-18T17:56:57;7.00;;;3.60;;
11957;SDS011;6039;52.576;13.348;2023-09-18T18:02:01;4.67;;;3.00;;
11957;SDS011;6039;52.576;13.348;2023-09-18T18:07:05;4.03;;;2.90;;
11957;SDS011;6039;52.576;13.348;2023-09-18T18:12:11;4.63;;;3.00;;
11957;SDS011;6039;52.576;13.348;2023-09-18T18:17:16;7.57;;;3.37;;
11957;SDS011;6039;52.576;13.348;2023-09-18T18:22:20;3.97;;;2.73;;
11957;SDS011;6039;52.576;13.348;2023-09-18T18:27:26;6.87;;;3.30;;
11957;SDS011;6039;52.576;13.348;2023-09-18T18:32:30;4.13;;;2.33;;
11957;SDS011;6039;52.576;13.348;2023-09-18T18:37:35;4.93;;;2.50;;
11957;SDS011;6039;52.576;13.348;2023-09-18T18:42:41;4.30;;;2.83;;
11957;SDS011;6039;52.576;13.348;2023-09-18T18:47:47;6.10;;;2.60;;
11957;SDS011;6039;52.576;13.348;2023-09-18T18:52:52;6.10;;;3.03;;
11957;SDS011;6039;52.576;13.348;2023-09-18T18:57:59;4.87;;;2.77;;
11957;SDS011;6039;52.576;13.348;2023-09-18T19:03:06;6.03;;;2.80;;
11957;SDS011;6039;52.576;13.348;2023-09-18T19:08:10;4.07;;;2.53;;
11957;SDS011;6039;52.576;13.348;2023-09-18T19:13:19;4.93;;;2.93;;
11957;SDS011;6039;52.576;13.348;2023-09-18T19:18:24;4.93;;;2.53;;
11957;SDS011;6039;52.576;13.348;2023-09-18T19:23:30;3.37;;;2.63;;
11957;SDS011;6039;52.576;13.348;2023-09-18T19:28:37;3.93;;;2.80;;
11957;SDS011;6039;52.576;13.348;2023-09-18T19:33:41;4.30;;;2.60;;
11957;SDS011;6039;52.576;13.348;2023-09-18T19:38:45;2.90;;;2.43;;
11957;SDS011;6039;52.576;13.348;2023-09-18T19:43:53;4.63;;;2.63;;
11957;SDS011;6039;52.576;13.348;2023-09-18T19:48:57;5.57;;;2.50;;
11957;SDS011;6039;52.576;13.348;2023-09-18T19:54:01;4.73;;;2.50;;
11957;SDS011;6039;52.576;13.348;2023-09-18T19:59:08;3.90;;;2.50;;
11957;SDS011;6039;52.576;13.348;2023-09-18T20:04:12;5.53;;;2.37;;
11957;SDS011;6039;52.576;13.348;2023-09-18T20:09:16;4.97;;;2.50;;
11957;SDS011;6039;52.576;13.348;2023-09-18T20:14:25;4.77;;;2.40;;
11957;SDS011;6039;52.576;13.348;2023-09-18T20:19:30;5.67;;;3.00;;
11957;SDS011;6039;52.576;13.348;2023-09-18T20:24:34;3.23;;;2.50;;
11957;SDS011;6039;52.576;13.348;2023-09-18T20:29:40;3.70;;;2.70;;
11957;SDS011;6039;52.576;13.348;2023-09-18T20:34:45;3.20;;;2.57;;
11957;SDS011;6039;52.576;13.348;2023-09-18T20:39:49;3.63;;;2.60;;
11957;SDS011;6039;52.576;13.348;2023-09-18T20:44:57;4.57;;;2.67;;
11957;SDS011;6039;52.576;13.348;2023-09-18T20:50:05;3.53;;;2.17;;
11957;SDS011;6039;52.576;13.348;2023-09-18T20:55:11;3.20;;;2.53;;
11957;SDS011;6039;52.576;13.348;2023-09-18T21:00:18;3.47;;;2.40;;
11957;SDS011;6039;52.576;13.348;2023-09-18T21:05:23;4.10;;;2.60;;
11957;SDS011;6039;52.576;13.348;2023-09-18T21:10:27;3.50;;;2.47;;
11957;SDS011;6039;52.576;13.348;2023-09-18T21:15:36;4.73;;;2.40;;
11957;SDS011;6039;52.576;13.348;2023-09-18T21:20:40;2.87;;;2.17;;
11957;SDS011;6039;52.576;13.348;2023-09-18T21:25:47;6.27;;;2.50;;
11957;SDS011;6039;52.576;13.348;2023-09-18T21:30:54;3.50;;;2.20;;
11957;SDS011;6039;52.576;13.348;2023-09-18T21:36:12;3.83;;;2.33;;
11957;SDS011;6039;52.576;13.348;2023-09-18T21:41:16;5.63;;;1.80;;
11957;SDS011;6039;52.576;13.348;2023-09-18T21:46:22;2.80;;;2.10;;
11957;SDS011;6039;52.576;13.348;2023-09-18T21:51:27;2.33;;;2.00;;
11957;SDS011;6039;52.576;13.348;2023-09-18T21:56:34;3.23;;;1.83;;
11957;SDS011;6039;52.576;13.348;2023-09-18T22:01:41;4.33;;;2.03;;
11957;SDS011;6039;52.576;13.348;2023-09-18T22:06:45;2.57;;;1.87;;
11957;SDS011;6039;52.576;13.348;2023-09-18T22:11:49;4.07;;;1.87;;
11957;SDS011;6039;52.576;13.348;2023-09-18T22:16:55;2.00;;;1.67;;
11957;SDS011;6039;52.576;13.348;2023-09-18T22:21:59;2.47;;;1.73;;
11957;SDS011;6039;52.576;13.348;2023-09-18T22:27:03;3.93;;;1.97;;
11957;SDS011;6039;52.576;13.348;2023-09-18T22:32:10;3.63;;;2.13;;
11957;SDS011;6039;52.576;13.348;2023-09-18T22:37:14;5.67;;;2.00;;
11957;SDS011;6039;52.576;13.348;2023-09-18T22:58:04;3.50;;;1.93;;
11957;SDS011;6039;52.576;13.348;2023-09-18T23:03:09;4.30;;;2.00;;
11957;SDS011;6039;52.576;13.348;2023-09-18T23:08:13;3.70;;;1.90;;
11957;SDS011;6039;52.576;13.348;2023-09-18T23:13:19;2.77;;;1.90;;
11957;SDS011;6039;52.576;13.348;2023-09-18T23:18:24;6.10;;;1.80;;
11957;SDS011;6039;52.576;13.348;2023-09-18T23:23:31;3.17;;;1.90;;
11957;SDS011;6039;52.576;13.348;2023-09-18T23:28:38;2.07;;;1.77;;
11957;SDS011;6039;52.576;13.348;2023-09-18T23:33:45;2.63;;;1.93;;
11957;SDS011;6039;52.576;13.348;2023-09-18T23:38:49;2.30;;;1.93;;
11957;SDS011;6039;52.576;13.348;2023-09-18T23:43:55;4.90;;;2.17;;
11957;SDS011;6039;52.576;13.348;2023-09-18T23:48:59;4.80;;;1.80;;
11957;SDS011;6039;52.576;13.348;2023-09-18T23:54:03;3.43;;;2.17;;
11957;SDS011;6039;52.576;13.348;2023-09-18T23:59:13;3.73;;;1.90;;
